LFRB/BES METAR and TAF weather

Enter ICAO airport designator
Station Type Date Time Source
LFRB METAR 2018/12/10 13:30 UTC NOAA

LFRB 101330Z AUTO 25004KT 9999 SCT026 BKN034 BKN140 13/06 Q1031 NOSIG


Station Type Date Time Source
LFRB Decoded METAR 2018/12/10 13:30 UTC NOAA

Brest, France (LFRB) 48-27N 004-25W 103M
Dec 10, 2018 - 08:30 AM EST / 2018.12.10 1330 UTC
Wind: from the WSW (250 degrees) at 5 MPH (4 KT):0
Visibility: greater than 7 mile(s):0
Sky conditions: mostly cloudy
Temperature: 55 F (13 C)
Dew Point: 42 F (6 C)
Relative Humidity: 62%
Pressure (altimeter): 30.45 in. Hg (1031 hPa)
ob: LFRB 101330Z AUTO 25004KT 9999 SCT026 BKN034 BKN140 13/06 Q1031 NOSIG
cycle: 13

Station Type Date Time Source
LFRB TAF 2018/12/10 12:21 UTC NOAA

TAF LFRB 101100Z 1012/1118 VRB02KT 9999 BKN022 OVC110
TEMPO 1021/1106 BKN014
BECMG 1106/1109 16011KT


Example: see airport list